Angle, Utah
Current Conditions -  °F | °C
As of 2:53 PM on Thursday 27 Nov 2014 (Local Time) from KBCE Reporting Station
Clear Clear  
Wind Chill: 51°   Ceiling: Unl
Heat Index: 51°   Visibility: 10mi
Dew Point: 13°   Wind: 12mph
Humidity: 22%   Direction: 140°SE
Pressure: 30.39"   Gusts: NA
Location:  37.9601°N, 112.141°W
Report Text: KBCE 272153Z AUTO 14010KT 10SM CLR 11/M11 A3039 RMK AO2 SLP251 T01061106
Loading
Personal Weather Stations






























Interactive Weather Map New forecast layout! Learn more

10-Day Weather Forecast

Advertisements
Track Severe Weather on mobile